createdAt,value
2018-03-28T00:00:29.356Z,15.57
2018-03-28T00:05:49.540Z,15.43
2018-03-28T00:08:17.022Z,15.73
2018-03-28T00:10:44.471Z,15.23
2018-03-28T00:13:11.952Z,15.53
2018-03-28T00:15:39.386Z,16.03
2018-03-28T00:18:06.886Z,16.27
2018-03-28T00:20:34.364Z,16.63
2018-03-28T00:23:01.878Z,14.90
2018-03-28T00:25:29.342Z,16.83
2018-03-28T00:27:56.824Z,16.77
2018-03-28T00:30:24.484Z,17.03
2018-03-28T00:32:51.916Z,16.80
2018-03-28T00:35:19.434Z,16.10
2018-03-28T00:37:46.916Z,16.70
2018-03-28T00:40:14.856Z,17.03
2018-03-28T00:42:42.336Z,16.80
2018-03-28T00:45:09.794Z,17.10
2018-03-28T00:47:37.270Z,16.77
2018-03-28T00:50:05.524Z,16.20
2018-03-28T00:52:47.217Z,16.60
2018-03-28T00:55:14.694Z,17.27
2018-03-28T00:57:42.148Z,17.37
2018-03-28T01:00:11.463Z,16.17
2018-03-28T01:02:53.166Z,17.73
2018-03-28T01:05:20.645Z,17.03
2018-03-28T01:07:48.154Z,18.47
2018-03-28T01:10:15.648Z,17.97
2018-03-28T01:12:43.230Z,16.47
2018-03-28T01:15:10.779Z,16.90
2018-03-28T01:17:38.344Z,17.07
2018-03-28T01:20:05.912Z,16.77
2018-03-28T01:22:48.047Z,16.70
2018-03-28T01:25:15.660Z,17.70
2018-03-28T01:27:43.228Z,17.90
2018-03-28T01:30:10.732Z,17.57
2018-03-28T01:32:38.280Z,17.33
2018-03-28T01:35:06.022Z,18.23
2018-03-28T01:37:33.876Z,19.13
2018-03-28T01:40:01.344Z,18.00
2018-03-28T01:42:43.102Z,18.17
2018-03-28T01:45:10.588Z,19.00
2018-03-28T01:47:38.223Z,18.87
2018-03-28T01:50:05.733Z,18.30
2018-03-28T01:52:33.545Z,18.90
2018-03-28T01:55:01.067Z,19.30
2018-03-28T01:57:28.553Z,19.50
2018-03-28T01:59:56.047Z,19.97
2018-03-28T02:02:23.540Z,19.47
2018-03-28T02:04:51.056Z,19.60
2018-03-28T02:07:18.616Z,20.27
2018-03-28T02:09:46.199Z,20.33
2018-03-28T02:12:14.517Z,19.57
2018-03-28T02:14:42.081Z,20.80
2018-03-28T02:17:09.672Z,19.40
2018-03-28T02:19:37.412Z,20.87
2018-03-28T02:24:57.445Z,20.03
2018-03-28T02:27:24.941Z,20.47
2018-03-28T02:29:52.517Z,20.30
2018-03-28T02:32:20.038Z,19.77
2018-03-28T02:34:47.542Z,20.97
2018-03-28T02:37:15.804Z,20.13
2018-03-28T02:39:43.297Z,21.13
2018-03-28T02:42:10.811Z,21.23
2018-03-28T02:44:39.453Z,21.47
2018-03-28T02:47:06.996Z,20.67
2018-03-28T02:49:34.490Z,22.10
2018-03-28T02:52:02.141Z,21.67
2018-03-28T02:54:29.714Z,20.70
2018-03-28T02:56:57.454Z,20.90
2018-03-28T02:59:25.780Z,24.20
2018-03-28T03:01:54.371Z,22.10
2018-03-28T03:04:21.966Z,20.57
2018-03-28T03:06:49.587Z,21.30
2018-03-28T03:09:17.113Z,22.50
2018-03-28T03:11:44.621Z,21.47
2018-03-28T03:14:12.186Z,22.03
2018-03-28T03:16:39.719Z,20.80
2018-03-28T03:19:07.464Z,21.93
2018-03-28T03:21:35.057Z,21.73
2018-03-28T03:24:04.952Z,21.33
2018-03-28T03:26:32.435Z,22.20
2018-03-28T03:29:00.533Z,22.63
2018-03-28T03:31:28.789Z,20.90
2018-03-28T03:33:56.328Z,22.77
2018-03-28T03:36:24.599Z,22.47
2018-03-28T03:38:52.157Z,22.67
2018-03-28T03:41:19.726Z,21.50
2018-03-28T03:43:47.243Z,22.97
2018-03-28T03:46:15.113Z,22.53
2018-03-28T03:48:42.630Z,22.97
2018-03-28T03:51:10.528Z,22.13
2018-03-28T03:53:38.022Z,23.33
2018-03-28T03:56:07.117Z,23.60
2018-03-28T03:58:35.112Z,23.47
2018-03-28T04:01:02.667Z,22.83
2018-03-28T04:03:30.231Z,22.87
2018-03-28T04:05:57.789Z,22.63
2018-03-28T04:08:25.367Z,23.40
2018-03-28T04:10:53.006Z,23.73
2018-03-28T04:13:20.523Z,24.47
2018-03-28T04:15:48.017Z,25.47
2018-03-28T04:18:15.793Z,24.27
2018-03-28T04:20:43.392Z,24.27
2018-03-28T04:23:11.073Z,24.47
2018-03-28T04:25:38.726Z,25.23
2018-03-28T04:28:06.313Z,23.80
2018-03-28T04:30:34.725Z,24.47
2018-03-28T04:33:02.363Z,24.37
2018-03-28T04:35:30.103Z,24.47
2018-03-28T04:37:57.705Z,24.40
2018-03-28T04:40:25.267Z,25.00
2018-03-28T04:42:52.869Z,26.10
2018-03-28T04:45:20.391Z,25.37
2018-03-28T04:47:48.072Z,25.50
2018-03-28T04:50:15.708Z,26.73
2018-03-28T04:52:48.229Z,25.20
2018-03-28T04:55:15.653Z,26.33
2018-03-28T04:57:43.900Z,27.27
2018-03-28T05:00:11.352Z,27.77
2018-03-28T05:02:48.510Z,26.73
2018-03-28T05:05:15.943Z,27.27
2018-03-28T05:07:43.464Z,28.80
2018-03-28T05:10:10.948Z,27.70
2018-03-28T05:12:38.488Z,26.83
2018-03-28T05:15:06.020Z,27.63
2018-03-28T05:17:33.518Z,28.57
2018-03-28T05:20:01.255Z,28.50
2018-03-28T05:22:28.939Z,28.03
2018-03-28T05:24:56.450Z,26.67
2018-03-28T05:27:24.020Z,28.27
2018-03-28T05:29:51.472Z,30.47
2018-03-28T05:32:18.986Z,28.87
2018-03-28T05:34:46.498Z,31.37
2018-03-28T05:37:15.551Z,29.00
2018-03-28T05:39:43.360Z,29.70
2018-03-28T05:42:10.998Z,30.40
2018-03-28T05:44:38.502Z,29.77
2018-03-28T05:47:06.082Z,30.37
2018-03-28T05:49:34.562Z,28.80
2018-03-28T05:52:02.772Z,30.20
2018-03-28T05:54:30.786Z,29.40
2018-03-28T05:56:58.317Z,30.23
2018-03-28T05:59:26.671Z,28.67
2018-03-28T06:01:54.334Z,29.97
2018-03-28T06:04:22.212Z,31.07
2018-03-28T06:06:50.165Z,29.00
2018-03-28T06:09:18.476Z,28.37
2018-03-28T06:11:46.172Z,30.47
2018-03-28T06:14:16.434Z,30.77
2018-03-28T06:16:44.112Z,30.33
2018-03-28T06:19:12.684Z,29.90
2018-03-28T06:21:41.666Z,30.97
2018-03-28T06:24:09.353Z,31.87
2018-03-28T06:26:36.892Z,30.50
2018-03-28T06:29:04.454Z,31.53
2018-03-28T06:31:32.407Z,31.10
2018-03-28T06:34:00.153Z,30.97
2018-03-28T06:36:27.926Z,32.80
2018-03-28T06:38:55.618Z,30.30
2018-03-28T06:41:23.193Z,32.27
2018-03-28T06:43:50.818Z,33.27
2018-03-28T06:46:18.395Z,32.20
2018-03-28T06:48:47.013Z,34.13
2018-03-28T06:51:14.642Z,32.97
2018-03-28T06:53:42.252Z,33.97
2018-03-28T06:56:09.938Z,33.23
2018-03-28T06:58:37.483Z,31.93
2018-03-28T07:01:05.028Z,33.40
2018-03-28T07:03:32.504Z,32.37
2018-03-28T07:06:00.106Z,35.13
2018-03-28T07:08:27.611Z,33.00
2018-03-28T07:10:55.293Z,34.03
2018-03-28T07:13:22.775Z,35.57
2018-03-28T07:15:50.612Z,35.40
2018-03-28T07:18:23.070Z,34.40
2018-03-28T07:20:50.615Z,35.03
2018-03-28T07:23:18.062Z,36.67
2018-03-28T07:25:45.556Z,35.43
2018-03-28T07:28:13.031Z,34.53
2018-03-28T07:30:40.598Z,34.43
2018-03-28T07:33:08.499Z,35.17
2018-03-28T07:35:36.014Z,33.47
2018-03-28T07:38:03.494Z,35.47
2018-03-28T07:40:31.857Z,33.27
2018-03-28T07:42:59.368Z,33.93
2018-03-28T07:45:26.898Z,35.03
2018-03-28T07:47:54.788Z,35.40
2018-03-28T07:50:22.316Z,34.77
2018-03-28T07:52:49.945Z,36.43
2018-03-28T07:55:17.640Z,35.23
2018-03-28T07:57:46.146Z,36.83
2018-03-28T08:00:13.648Z,37.27
2018-03-28T08:02:41.187Z,35.60
2018-03-28T08:05:08.672Z,35.07
2018-03-28T08:07:36.236Z,37.13
2018-03-28T08:10:04.108Z,35.40
2018-03-28T08:12:31.746Z,36.00
2018-03-28T08:15:00.098Z,36.20
2018-03-28T08:17:27.599Z,35.83
2018-03-28T08:19:55.058Z,35.70
2018-03-28T08:22:23.320Z,36.03
2018-03-28T08:24:53.542Z,34.97
2018-03-28T08:27:22.286Z,35.77
2018-03-28T08:29:49.842Z,35.17
2018-03-28T08:32:17.390Z,34.20
2018-03-28T08:34:45.097Z,33.63
2018-03-28T08:37:12.880Z,34.17
2018-03-28T08:39:40.416Z,33.57
2018-03-28T08:42:08.209Z,36.10
2018-03-28T08:44:35.742Z,34.93
2018-03-28T08:47:03.318Z,34.33
2018-03-28T08:49:30.783Z,34.53
2018-03-28T08:51:58.260Z,33.17
2018-03-28T08:54:25.772Z,35.57
2018-03-28T08:56:53.230Z,33.63
2018-03-28T08:59:20.784Z,34.43
2018-03-28T09:07:33.328Z,31.33
2018-03-28T09:10:00.846Z,32.63
2018-03-28T09:12:28.376Z,32.13
2018-03-28T09:14:55.852Z,33.30
2018-03-28T09:17:23.372Z,32.53
2018-03-28T09:19:50.925Z,33.37
2018-03-28T09:22:18.462Z,30.37
2018-03-28T09:24:45.990Z,33.30
2018-03-28T09:27:14.564Z,32.83
2018-03-28T09:29:42.133Z,31.87
2018-03-28T09:32:09.673Z,32.00
2018-03-28T09:34:37.210Z,30.90
2018-03-28T09:37:05.618Z,30.73
2018-03-28T09:39:33.387Z,31.57
2018-03-28T09:42:05.006Z,31.03
2018-03-28T09:44:33.185Z,31.17
2018-03-28T09:47:00.794Z,29.53
2018-03-28T09:49:28.324Z,30.33
2018-03-28T09:51:56.131Z,30.77
2018-03-28T09:54:26.334Z,29.73
2018-03-28T09:56:53.872Z,31.43
2018-03-28T09:59:21.386Z,26.33
2018-03-28T10:01:54.742Z,29.17
2018-03-28T10:04:22.282Z,28.97
2018-03-28T10:06:50.017Z,25.20
2018-03-28T10:09:17.716Z,28.43
2018-03-28T10:12:08.935Z,28.00
2018-03-28T10:14:36.633Z,28.97
2018-03-28T10:17:06.009Z,27.50
2018-03-28T10:19:33.533Z,24.60
2018-03-28T10:22:02.015Z,28.70
2018-03-28T10:24:30.884Z,28.93
2018-03-28T10:26:58.358Z,27.43
2018-03-28T10:29:25.947Z,31.70
2018-03-28T10:31:53.423Z,27.50
2018-03-28T10:34:21.069Z,27.33
2018-03-28T10:36:48.528Z,26.67
2018-03-28T10:39:16.059Z,27.50
2018-03-28T10:41:53.224Z,27.83
2018-03-28T10:44:20.659Z,27.90
2018-03-28T10:46:48.475Z,26.73
2018-03-28T10:49:16.024Z,26.67
2018-03-28T10:51:43.614Z,26.33
2018-03-28T10:54:11.082Z,25.57
2018-03-28T10:56:38.677Z,25.00
2018-03-28T10:59:06.878Z,24.77
2018-03-28T11:01:34.426Z,30.50
2018-03-28T11:04:01.879Z,27.13
2018-03-28T11:06:29.607Z,22.43
2018-03-28T11:08:57.813Z,25.20
2018-03-28T11:11:25.466Z,25.43
2018-03-28T11:13:53.065Z,24.97
2018-03-28T11:16:20.857Z,24.10
2018-03-28T11:18:48.521Z,21.20
2018-03-28T11:21:22.317Z,22.23
2018-03-28T11:23:49.927Z,23.10
2018-03-28T11:26:17.755Z,22.87
2018-03-28T11:28:47.048Z,23.43
2018-03-28T11:34:21.755Z,19.07
2018-03-28T11:36:49.427Z,20.13
2018-03-28T11:39:17.335Z,18.57
2018-03-28T11:42:04.167Z,20.87
2018-03-28T11:44:31.975Z,19.00
2018-03-28T11:46:59.981Z,21.57
2018-03-28T11:49:27.473Z,19.03
2018-03-28T11:51:54.952Z,21.07
2018-03-28T11:54:23.263Z,20.87
2018-03-28T11:56:52.507Z,21.23
2018-03-28T11:59:21.019Z,23.00
2018-03-28T12:01:49.475Z,18.23
2018-03-28T12:04:17.110Z,23.13
2018-03-28T12:06:44.888Z,18.30
2018-03-28T12:09:12.375Z,20.37
2018-03-28T12:11:39.886Z,18.97
2018-03-28T12:14:08.835Z,16.30
2018-03-28T12:16:36.475Z,18.73
2018-03-28T12:19:04.369Z,17.23
2018-03-28T12:24:30.054Z,15.03
2018-03-28T12:26:57.577Z,17.17
2018-03-28T12:29:25.497Z,15.17
2018-03-28T12:32:02.905Z,18.57
2018-03-28T12:34:30.402Z,18.20
2018-03-28T12:36:57.948Z,16.43
2018-03-28T12:39:26.195Z,19.13
2018-03-28T12:42:13.233Z,17.00
2018-03-28T12:44:40.784Z,19.73
2018-03-28T12:47:09.691Z,18.00
2018-03-28T12:49:37.538Z,19.90
2018-03-28T12:52:05.488Z,17.57
2018-03-28T12:54:33.894Z,19.90
2018-03-28T12:57:06.959Z,20.73
2018-03-28T12:59:35.485Z,18.90
2018-03-28T13:02:02.939Z,21.90
2018-03-28T13:04:30.509Z,19.93
2018-03-28T13:06:58.066Z,22.70
2018-03-28T13:09:25.741Z,19.70
2018-03-28T13:11:53.468Z,22.30
2018-03-28T13:14:21.699Z,20.27
2018-03-28T13:16:50.058Z,21.43
2018-03-28T13:19:17.942Z,20.87
2018-03-28T13:21:47.182Z,23.90
2018-03-28T13:24:14.727Z,20.27
2018-03-28T13:26:43.321Z,24.20
2018-03-28T13:29:11.125Z,21.23
2018-03-28T13:31:38.702Z,23.07
2018-03-28T13:34:08.050Z,20.90
2018-03-28T13:36:35.804Z,21.93
2018-03-28T13:39:04.153Z,21.60
2018-03-28T13:41:31.719Z,24.07
2018-03-28T13:43:59.244Z,21.43
2018-03-28T13:46:26.998Z,21.53
2018-03-28T13:48:54.832Z,19.97
2018-03-28T13:51:22.436Z,21.33
2018-03-28T13:53:49.880Z,17.80
2018-03-28T13:56:17.418Z,20.03
2018-03-28T13:58:45.100Z,17.90
2018-03-28T14:01:13.393Z,18.13
2018-03-28T14:03:41.090Z,17.87
2018-03-28T14:06:08.573Z,20.17
2018-03-28T14:08:36.131Z,17.13
2018-03-28T14:11:04.475Z,17.70
2018-03-28T14:13:32.072Z,20.77
2018-03-28T14:15:59.544Z,24.63
2018-03-28T14:18:27.214Z,31.50
2018-03-28T14:20:54.680Z,31.70
2018-03-28T14:23:27.238Z,30.37
2018-03-28T14:25:54.712Z,30.10
2018-03-28T14:28:22.435Z,32.00
2018-03-28T14:30:49.994Z,28.70
2018-03-28T14:33:17.482Z,28.10
2018-03-28T14:35:45.093Z,32.07
2018-03-28T14:38:12.684Z,31.23
2018-03-28T14:40:40.996Z,33.00
2018-03-28T14:43:08.492Z,31.57
2018-03-28T14:45:36.012Z,34.47
2018-03-28T14:48:03.672Z,32.13
2018-03-28T14:50:31.241Z,35.37
2018-03-28T14:52:58.880Z,33.47
2018-03-28T14:55:26.832Z,36.57
2018-03-28T14:57:54.358Z,33.77
2018-03-28T15:00:21.864Z,35.50
2018-03-28T15:03:13.068Z,35.70
2018-03-28T15:05:40.664Z,36.53
2018-03-28T15:08:08.192Z,32.73
2018-03-28T15:10:35.831Z,36.30
2018-03-28T15:13:03.324Z,33.93
2018-03-28T15:15:30.814Z,39.03
2018-03-28T15:17:58.292Z,35.03
2018-03-28T15:20:25.836Z,41.50
2018-03-28T15:22:53.337Z,36.10
2018-03-28T15:25:21.036Z,39.47
2018-03-28T15:27:49.343Z,39.50
2018-03-28T15:30:16.816Z,35.73
2018-03-28T15:32:44.314Z,40.17
2018-03-28T15:35:11.870Z,34.23
2018-03-28T15:37:39.591Z,39.63
2018-03-28T15:40:07.630Z,36.43
2018-03-28T15:42:45.587Z,41.43
2018-03-28T15:45:13.135Z,41.77
2018-03-28T15:47:40.854Z,40.73
2018-03-28T15:50:08.578Z,40.40
2018-03-28T15:52:36.291Z,39.67
2018-03-28T15:55:03.754Z,41.40
2018-03-28T15:57:31.239Z,40.37
2018-03-28T15:59:58.770Z,41.87
2018-03-28T16:02:26.274Z,39.27
2018-03-28T16:04:54.077Z,39.50
2018-03-28T16:07:21.571Z,39.33
2018-03-28T16:09:49.393Z,40.60
2018-03-28T16:12:17.096Z,41.80
2018-03-28T16:14:44.622Z,40.13
2018-03-28T16:17:19.852Z,40.13
2018-03-28T16:19:47.559Z,42.00
2018-03-28T16:25:12.650Z,39.97
2018-03-28T16:27:40.173Z,41.27
2018-03-28T16:30:08.921Z,39.23
2018-03-28T16:32:37.000Z,39.70
2018-03-28T16:35:04.724Z,39.50
2018-03-28T16:37:32.559Z,40.50
2018-03-28T16:40:00.338Z,41.10
2018-03-28T16:42:32.886Z,42.27
2018-03-28T16:45:00.674Z,40.87
2018-03-28T16:47:28.260Z,40.73
2018-03-28T16:49:55.766Z,43.57
2018-03-28T17:07:09.532Z,42.03
2018-03-28T17:09:37.323Z,42.50
2018-03-28T17:12:05.181Z,41.67
2018-03-28T17:14:32.639Z,42.33
2018-03-28T17:17:02.879Z,41.93
2018-03-28T17:19:30.458Z,41.93
2018-03-28T17:21:59.293Z,42.43
2018-03-28T17:24:26.852Z,42.30
2018-03-28T17:26:54.412Z,41.37
2018-03-28T17:29:22.220Z,41.83
2018-03-28T17:31:50.644Z,41.03
2018-03-28T17:34:18.117Z,35.77
2018-03-28T17:36:45.593Z,39.63
2018-03-28T17:39:13.388Z,37.37
2018-03-28T17:41:41.106Z,37.40
2018-03-28T17:44:09.057Z,36.20
2018-03-28T17:46:36.577Z,36.50
2018-03-28T17:49:04.073Z,35.13
2018-03-28T17:51:31.547Z,36.00
2018-03-28T17:53:59.062Z,32.23
2018-03-28T17:56:26.612Z,34.30
2018-03-28T17:58:54.118Z,31.80
2018-03-28T18:01:22.272Z,35.73
2018-03-28T18:03:49.762Z,31.40
2018-03-28T18:06:17.504Z,35.47
2018-03-28T18:08:45.267Z,32.80
2018-03-28T18:11:12.964Z,36.90
2018-03-28T18:13:40.540Z,32.50
2018-03-28T18:16:08.765Z,37.43
2018-03-28T18:18:36.249Z,34.03
2018-03-28T18:21:04.112Z,36.07
2018-03-28T18:23:31.755Z,36.83
2018-03-28T18:25:59.306Z,36.83
2018-03-28T18:28:27.708Z,34.93
2018-03-28T18:30:55.282Z,33.80
2018-03-28T18:33:22.846Z,33.37
2018-03-28T18:35:50.350Z,33.30
2018-03-28T18:38:17.883Z,31.40
2018-03-28T18:40:45.410Z,31.30
2018-03-28T18:43:13.150Z,29.17
2018-03-28T18:45:40.888Z,29.63
2018-03-28T18:48:08.479Z,29.03
2018-03-28T18:50:36.249Z,29.73
2018-03-28T18:53:08.738Z,28.77
2018-03-28T18:55:36.298Z,30.17
2018-03-28T18:58:04.005Z,28.80
2018-03-28T19:00:31.627Z,28.53
2018-03-28T19:02:59.191Z,28.80
2018-03-28T19:05:26.859Z,29.70
2018-03-28T19:07:54.359Z,26.80
2018-03-28T19:10:22.323Z,24.83
2018-03-28T19:12:49.764Z,27.40
2018-03-28T19:15:17.307Z,26.93
2018-03-28T19:17:44.907Z,26.63
2018-03-28T19:20:12.696Z,25.40
2018-03-28T19:22:40.450Z,26.63
2018-03-28T19:25:08.028Z,25.50
2018-03-28T19:27:35.731Z,25.97
2018-03-28T19:30:03.218Z,27.30
2018-03-28T19:32:30.785Z,24.83
2018-03-28T19:34:58.336Z,25.20
2018-03-28T19:37:25.861Z,25.80
2018-03-28T19:39:54.312Z,25.83
2018-03-28T19:42:21.847Z,25.20
2018-03-28T19:44:49.428Z,24.53
2018-03-28T19:47:17.250Z,23.97
2018-03-28T19:49:44.995Z,24.53
2018-03-28T19:55:05.350Z,24.20
2018-03-28T19:57:33.606Z,22.97
2018-03-28T20:00:01.289Z,20.53
2018-03-28T20:02:28.823Z,21.13
2018-03-28T20:05:02.332Z,18.83
2018-03-28T20:07:29.871Z,20.50
2018-03-28T20:09:57.435Z,18.00
2018-03-28T20:12:24.929Z,18.30
2018-03-28T20:14:53.308Z,16.20
2018-03-28T20:17:20.840Z,18.37
2018-03-28T20:19:48.399Z,15.77
2018-03-28T20:22:15.943Z,17.63
2018-03-28T20:24:43.546Z,15.10
2018-03-28T20:27:11.077Z,16.70
2018-03-28T20:29:38.868Z,14.03
2018-03-28T20:32:06.597Z,16.93
2018-03-28T20:34:34.137Z,14.23
2018-03-28T20:37:01.700Z,16.73
2018-03-28T20:39:29.261Z,15.53
2018-03-28T20:41:56.785Z,13.57
2018-03-28T20:44:24.332Z,17.00
2018-03-28T20:46:51.853Z,13.33
2018-03-28T20:49:19.322Z,15.27
2018-03-28T20:51:46.838Z,12.87
2018-03-28T20:54:15.191Z,14.03
2018-03-28T20:56:42.659Z,13.47
2018-03-28T20:59:11.250Z,14.37
2018-03-28T21:01:38.786Z,13.00
2018-03-28T21:04:06.319Z,14.63
2018-03-28T21:06:33.809Z,14.67
2018-03-28T21:09:01.384Z,13.40
2018-03-28T21:11:33.850Z,14.23
2018-03-28T21:14:01.440Z,13.10
2018-03-28T21:16:28.927Z,15.30
2018-03-28T21:18:56.434Z,14.50
2018-03-28T21:21:23.955Z,15.60
2018-03-28T21:23:51.457Z,14.97
2018-03-28T21:26:19.170Z,14.10
2018-03-28T21:28:46.634Z,14.30
2018-03-28T21:31:14.097Z,14.43
2018-03-28T21:33:41.817Z,14.50
2018-03-28T21:36:13.303Z,15.20
2018-03-28T21:38:40.824Z,13.73
2018-03-28T21:41:08.344Z,15.50
2018-03-28T21:43:35.849Z,14.10
2018-03-28T21:46:03.348Z,13.97
2018-03-28T21:48:31.364Z,11.97
2018-03-28T21:50:58.897Z,14.60
2018-03-28T21:53:26.762Z,13.03
2018-03-28T21:55:54.273Z,14.13
2018-03-28T21:58:21.787Z,11.37
2018-03-28T22:00:49.257Z,14.03
2018-03-28T22:03:16.729Z,12.23
2018-03-28T22:05:44.219Z,12.83
2018-03-28T22:08:11.709Z,12.33
2018-03-28T22:10:39.238Z,14.57
2018-03-28T22:13:06.730Z,12.60
2018-03-28T22:15:34.178Z,13.93
2018-03-28T22:18:01.897Z,12.10
2018-03-28T22:20:29.349Z,14.57
2018-03-28T22:22:57.442Z,12.20
2018-03-28T22:25:24.990Z,15.23
2018-03-28T22:27:52.456Z,14.23
2018-03-28T22:30:19.935Z,13.80
2018-03-28T22:32:47.571Z,12.33
2018-03-28T22:35:15.069Z,14.23
2018-03-28T22:37:42.595Z,14.90
2018-03-28T22:40:10.474Z,14.30
2018-03-28T22:42:47.590Z,15.20
2018-03-28T22:45:15.193Z,15.17
2018-03-28T22:47:42.649Z,14.63
2018-03-28T22:50:10.117Z,12.87
2018-03-28T22:52:37.877Z,14.87
2018-03-28T22:55:05.481Z,14.17
2018-03-28T22:57:33.505Z,13.53
2018-03-28T23:00:01.074Z,14.97
2018-03-28T23:02:28.536Z,14.73
2018-03-28T23:04:56.215Z,14.53
2018-03-28T23:07:23.662Z,14.20
2018-03-28T23:09:51.255Z,14.33
2018-03-28T23:12:18.968Z,14.60
2018-03-28T23:14:46.456Z,14.03
2018-03-28T23:17:14.288Z,14.93
2018-03-28T23:19:41.772Z,15.33
2018-03-28T23:22:23.460Z,14.50
2018-03-28T23:24:50.958Z,14.87
2018-03-28T23:27:18.519Z,14.60
2018-03-28T23:29:45.964Z,14.53
2018-03-28T23:32:13.486Z,14.23
2018-03-28T23:34:41.029Z,14.37
2018-03-28T23:37:08.495Z,14.47
2018-03-28T23:39:35.980Z,13.87
2018-03-28T23:42:03.744Z,13.73
2018-03-28T23:44:31.198Z,13.70
2018-03-28T23:46:58.821Z,14.13
2018-03-28T23:49:26.326Z,13.13
2018-03-28T23:51:53.785Z,13.97
2018-03-28T23:54:21.273Z,13.80
2018-03-28T23:56:48.738Z,13.20
2018-03-28T23:59:16.224Z,12.60
